sensor_id;sensor_type;location;lat;lon;timestamp;pressure;altitude;pressure_sealevel;temperature;humidity
11339;BME280;5724;42.684;23.252;2022-08-19T00:00:35;94124.34;;;22.71;55.11
11339;BME280;5724;42.684;23.252;2022-08-19T00:03:00;94131.69;;;22.65;55.49
11339;BME280;5724;42.684;23.252;2022-08-19T00:05:26;94133.09;;;22.56;55.82
11339;BME280;5724;42.684;23.252;2022-08-19T00:07:51;94130.63;;;22.46;55.88
11339;BME280;5724;42.684;23.252;2022-08-19T00:10:17;94135.59;;;22.38;55.95
11339;BME280;5724;42.684;23.252;2022-08-19T00:12:44;94137.09;;;22.43;55.71
11339;BME280;5724;42.684;23.252;2022-08-19T00:15:12;94123.34;;;22.36;55.39
11339;BME280;5724;42.684;23.252;2022-08-19T00:17:40;94147.47;;;22.26;55.64
11339;BME280;5724;42.684;23.252;2022-08-19T00:20:08;94153.59;;;22.21;56.21
11339;BME280;5724;42.684;23.252;2022-08-19T00:22:36;94145.56;;;22.23;56.97
11339;BME280;5724;42.684;23.252;2022-08-19T00:25:01;94146.25;;;22.27;57.15
11339;BME280;5724;42.684;23.252;2022-08-19T00:27:27;94152.03;;;22.20;56.92
11339;BME280;5724;42.684;23.252;2022-08-19T00:29:52;94151.44;;;22.12;57.83
11339;BME280;5724;42.684;23.252;2022-08-19T00:32:18;94151.16;;;22.07;57.55
11339;BME280;5724;42.684;23.252;2022-08-19T00:34:43;94142.75;;;22.10;57.42
11339;BME280;5724;42.684;23.252;2022-08-19T00:37:09;94144.63;;;22.13;57.76
11339;BME280;5724;42.684;23.252;2022-08-19T00:39:34;94143.59;;;22.07;58.02
11339;BME280;5724;42.684;23.252;2022-08-19T00:42:00;94143.50;;;21.94;58.91
11339;BME280;5724;42.684;23.252;2022-08-19T00:44:28;94138.47;;;21.89;59.13
11339;BME280;5724;42.684;23.252;2022-08-19T00:46:55;94129.69;;;21.91;57.25
11339;BME280;5724;42.684;23.252;2022-08-19T00:52:02;94135.94;;;21.95;56.96
11339;BME280;5724;42.684;23.252;2022-08-19T00:54:30;94135.75;;;22.02;56.63
11339;BME280;5724;42.684;23.252;2022-08-19T00:56:57;94131.59;;;22.10;56.41
11339;BME280;5724;42.684;23.252;2022-08-19T00:59:23;94128.19;;;22.19;56.05
11339;BME280;5724;42.684;23.252;2022-08-19T01:01:50;94125.31;;;22.22;55.55
11339;BME280;5724;42.684;23.252;2022-08-19T01:04:16;94128.53;;;22.21;55.28
11339;BME280;5724;42.684;23.252;2022-08-19T01:06:41;94133.16;;;22.11;55.98
11339;BME280;5724;42.684;23.252;2022-08-19T01:09:08;94132.28;;;21.98;56.89
11339;BME280;5724;42.684;23.252;2022-08-19T01:11:36;94138.38;;;21.93;57.43
11339;BME280;5724;42.684;23.252;2022-08-19T01:14:03;94136.38;;;21.93;56.76
11339;BME280;5724;42.684;23.252;2022-08-19T01:16:31;94136.22;;;21.84;58.44
11339;BME280;5724;42.684;23.252;2022-08-19T01:18:57;94131.19;;;21.63;59.86
11339;BME280;5724;42.684;23.252;2022-08-19T01:21:42;94119.47;;;21.55;60.03
11339;BME280;5724;42.684;23.252;2022-08-19T01:24:10;94113.28;;;21.48;60.31
11339;BME280;5724;42.684;23.252;2022-08-19T01:26:41;94121.19;;;21.49;60.00
11339;BME280;5724;42.684;23.252;2022-08-19T01:29:08;94113.56;;;21.53;59.53
11339;BME280;5724;42.684;23.252;2022-08-19T01:31:34;94130.84;;;21.45;60.54
11339;BME280;5724;42.684;23.252;2022-08-19T01:34:01;94137.03;;;21.52;60.32
11339;BME280;5724;42.684;23.252;2022-08-19T01:38:55;94128.16;;;21.21;61.62
11339;BME280;5724;42.684;23.252;2022-08-19T01:41:20;94130.69;;;21.15;61.54
11339;BME280;5724;42.684;23.252;2022-08-19T01:43:48;94124.53;;;21.08;61.66
11339;BME280;5724;42.684;23.252;2022-08-19T01:46:15;94129.44;;;21.00;61.75
11339;BME280;5724;42.684;23.252;2022-08-19T01:48:42;94135.44;;;20.99;62.01
11339;BME280;5724;42.684;23.252;2022-08-19T01:51:09;94136.03;;;20.90;62.66
11339;BME280;5724;42.684;23.252;2022-08-19T01:53:35;94133.97;;;20.94;62.82
11339;BME280;5724;42.684;23.252;2022-08-19T01:56:02;94130.56;;;20.86;62.98
11339;BME280;5724;42.684;23.252;2022-08-19T01:58:44;94131.34;;;20.87;62.83
11339;BME280;5724;42.684;23.252;2022-08-19T02:01:12;94137.53;;;20.95;62.75
11339;BME280;5724;42.684;23.252;2022-08-19T02:03:39;94139.09;;;20.96;62.58
11339;BME280;5724;42.684;23.252;2022-08-19T02:06:04;94145.13;;;20.91;62.11
11339;BME280;5724;42.684;23.252;2022-08-19T02:08:33;94124.28;;;20.82;62.36
11339;BME280;5724;42.684;23.252;2022-08-19T02:10:59;94116.03;;;20.79;62.72
11339;BME280;5724;42.684;23.252;2022-08-19T02:13:26;94119.09;;;20.84;62.49
11339;BME280;5724;42.684;23.252;2022-08-19T02:15:52;94127.00;;;20.86;62.84
11339;BME280;5724;42.684;23.252;2022-08-19T02:18:17;94125.50;;;20.81;62.69
11339;BME280;5724;42.684;23.252;2022-08-19T02:20:43;94130.78;;;20.76;63.06
11339;BME280;5724;42.684;23.252;2022-08-19T02:23:11;94135.16;;;20.57;64.08
11339;BME280;5724;42.684;23.252;2022-08-19T02:25:38;94134.16;;;20.47;64.41
11339;BME280;5724;42.684;23.252;2022-08-19T02:28:04;94134.84;;;20.51;64.13
11339;BME280;5724;42.684;23.252;2022-08-19T02:30:30;94122.25;;;20.47;64.27
11339;BME280;5724;42.684;23.252;2022-08-19T02:32:55;94129.06;;;20.42;64.77
11339;BME280;5724;42.684;23.252;2022-08-19T02:35:21;94137.28;;;20.49;64.55
11339;BME280;5724;42.684;23.252;2022-08-19T02:37:47;94125.09;;;20.43;64.38
11339;BME280;5724;42.684;23.252;2022-08-19T02:40:32;94136.69;;;20.58;63.88
11339;BME280;5724;42.684;23.252;2022-08-19T02:43:05;94132.47;;;20.30;65.82
11339;BME280;5724;42.684;23.252;2022-08-19T02:45:37;94133.59;;;20.13;66.83
11339;BME280;5724;42.684;23.252;2022-08-19T02:48:03;94134.66;;;19.99;67.81
11339;BME280;5724;42.684;23.252;2022-08-19T02:50:30;94120.75;;;19.79;67.92
11339;BME280;5724;42.684;23.252;2022-08-19T02:52:55;94139.78;;;19.77;68.10
11339;BME280;5724;42.684;23.252;2022-08-19T02:55:21;94146.06;;;19.81;67.25
11339;BME280;5724;42.684;23.252;2022-08-19T02:57:47;94142.97;;;19.76;66.61
11339;BME280;5724;42.684;23.252;2022-08-19T03:00:13;94144.09;;;19.78;66.89
11339;BME280;5724;42.684;23.252;2022-08-19T03:02:39;94139.22;;;19.86;66.40
11339;BME280;5724;42.684;23.252;2022-08-19T03:05:06;94142.94;;;19.79;67.60
11339;BME280;5724;42.684;23.252;2022-08-19T03:07:32;94135.06;;;19.74;67.36
11339;BME280;5724;42.684;23.252;2022-08-19T03:09:57;94142.38;;;19.64;68.59
11339;BME280;5724;42.684;23.252;2022-08-19T03:12:23;94144.38;;;19.64;68.84
11339;BME280;5724;42.684;23.252;2022-08-19T03:14:48;94133.97;;;19.68;69.03
11339;BME280;5724;42.684;23.252;2022-08-19T03:17:14;94135.94;;;19.71;68.83
11339;BME280;5724;42.684;23.252;2022-08-19T03:19:40;94132.91;;;19.62;69.50
11339;BME280;5724;42.684;23.252;2022-08-19T03:22:05;94143.25;;;19.58;69.62
11339;BME280;5724;42.684;23.252;2022-08-19T03:24:31;94139.44;;;19.48;69.82
11339;BME280;5724;42.684;23.252;2022-08-19T03:26:57;94139.75;;;19.30;69.89
11339;BME280;5724;42.684;23.252;2022-08-19T03:29:25;94136.13;;;19.33;69.50
11339;BME280;5724;42.684;23.252;2022-08-19T03:31:51;94143.13;;;19.41;69.47
11339;BME280;5724;42.684;23.252;2022-08-19T03:34:22;94142.88;;;19.32;69.77
11339;BME280;5724;42.684;23.252;2022-08-19T03:36:51;94138.72;;;19.44;69.34
11339;BME280;5724;42.684;23.252;2022-08-19T03:39:18;94142.63;;;19.47;69.14
11339;BME280;5724;42.684;23.252;2022-08-19T03:41:45;94143.47;;;19.43;69.44
11339;BME280;5724;42.684;23.252;2022-08-19T03:44:13;94148.81;;;19.58;68.74
11339;BME280;5724;42.684;23.252;2022-08-19T03:46:39;94148.16;;;19.47;69.33
11339;BME280;5724;42.684;23.252;2022-08-19T03:49:04;94156.75;;;19.56;68.82
11339;BME280;5724;42.684;23.252;2022-08-19T03:51:36;94167.00;;;19.59;68.89
11339;BME280;5724;42.684;23.252;2022-08-19T03:54:04;94165.81;;;19.33;69.62
11339;BME280;5724;42.684;23.252;2022-08-19T03:56:31;94164.03;;;19.19;70.38
11339;BME280;5724;42.684;23.252;2022-08-19T03:58:59;94164.78;;;19.23;70.21
11339;BME280;5724;42.684;23.252;2022-08-19T04:01:27;94170.50;;;19.36;69.58
11339;BME280;5724;42.684;23.252;2022-08-19T04:03:54;94166.25;;;19.31;70.25
11339;BME280;5724;42.684;23.252;2022-08-19T04:06:23;94171.72;;;19.35;69.94
11339;BME280;5724;42.684;23.252;2022-08-19T04:08:50;94179.50;;;19.43;69.83
11339;BME280;5724;42.684;23.252;2022-08-19T04:11:23;94178.34;;;19.41;69.69
11339;BME280;5724;42.684;23.252;2022-08-19T04:13:50;94164.00;;;19.46;69.58
11339;BME280;5724;42.684;23.252;2022-08-19T04:16:21;94168.22;;;19.58;69.70
11339;BME280;5724;42.684;23.252;2022-08-19T04:18:48;94177.75;;;19.53;69.62
11339;BME280;5724;42.684;23.252;2022-08-19T04:21:22;94167.75;;;19.63;69.05
11339;BME280;5724;42.684;23.252;2022-08-19T04:23:48;94172.31;;;19.73;68.76
11339;BME280;5724;42.684;23.252;2022-08-19T04:26:20;94178.97;;;19.79;68.82
11339;BME280;5724;42.684;23.252;2022-08-19T04:28:46;94179.53;;;19.67;68.63
11339;BME280;5724;42.684;23.252;2022-08-19T04:31:18;94171.97;;;19.71;69.33
11339;BME280;5724;42.684;23.252;2022-08-19T04:33:44;94165.09;;;19.79;68.97
11339;BME280;5724;42.684;23.252;2022-08-19T04:36:21;94184.00;;;19.84;68.40
11339;BME280;5724;42.684;23.252;2022-08-19T04:38:48;94187.44;;;19.92;68.96
11339;BME280;5724;42.684;23.252;2022-08-19T04:41:13;94185.34;;;19.99;68.13
11339;BME280;5724;42.684;23.252;2022-08-19T04:43:57;94183.09;;;20.14;67.68
11339;BME280;5724;42.684;23.252;2022-08-19T04:46:23;94188.81;;;20.27;67.15
11339;BME280;5724;42.684;23.252;2022-08-19T04:48:48;94183.78;;;20.42;66.65
11339;BME280;5724;42.684;23.252;2022-08-19T04:51:14;94186.88;;;20.47;67.17
11339;BME280;5724;42.684;23.252;2022-08-19T04:53:41;94185.94;;;20.54;66.48
11339;BME280;5724;42.684;23.252;2022-08-19T04:56:08;94186.16;;;20.63;66.28
11339;BME280;5724;42.684;23.252;2022-08-19T04:58:34;94154.34;;;20.48;65.85
11339;BME280;5724;42.684;23.252;2022-08-19T05:01:00;94187.00;;;20.80;65.46
11339;BME280;5724;42.684;23.252;2022-08-19T05:03:26;94191.41;;;20.97;64.98
11339;BME280;5724;42.684;23.252;2022-08-19T05:05:52;94191.34;;;21.01;65.23
11339;BME280;5724;42.684;23.252;2022-08-19T05:08:20;94179.38;;;21.04;64.81
11339;BME280;5724;42.684;23.252;2022-08-19T05:10:47;94189.81;;;21.16;64.25
11339;BME280;5724;42.684;23.252;2022-08-19T05:13:14;94190.81;;;21.26;64.79
11339;BME280;5724;42.684;23.252;2022-08-19T05:15:41;94192.59;;;21.36;64.63
11339;BME280;5724;42.684;23.252;2022-08-19T05:18:06;94173.94;;;21.17;64.20
11339;BME280;5724;42.684;23.252;2022-08-19T05:20:50;94129.63;;;21.09;63.70
11339;BME280;5724;42.684;23.252;2022-08-19T05:23:35;94197.94;;;21.63;63.64
11339;BME280;5724;42.684;23.252;2022-08-19T05:26:00;94189.84;;;21.68;63.50
11339;BME280;5724;42.684;23.252;2022-08-19T05:28:26;94201.84;;;21.82;63.51
11339;BME280;5724;42.684;23.252;2022-08-19T05:30:53;94195.22;;;21.76;63.58
11339;BME280;5724;42.684;23.252;2022-08-19T05:33:21;94202.09;;;21.87;63.08
11339;BME280;5724;42.684;23.252;2022-08-19T05:35:46;94199.38;;;22.00;63.00
11339;BME280;5724;42.684;23.252;2022-08-19T05:38:13;94196.81;;;22.09;62.53
11339;BME280;5724;42.684;23.252;2022-08-19T05:40:39;94196.78;;;22.25;61.24
11339;BME280;5724;42.684;23.252;2022-08-19T05:43:06;94199.06;;;22.31;60.36
11339;BME280;5724;42.684;23.252;2022-08-19T05:45:38;94192.00;;;22.10;60.11
11339;BME280;5724;42.684;23.252;2022-08-19T05:48:03;94200.59;;;21.99;60.86
11339;BME280;5724;42.684;23.252;2022-08-19T05:50:29;94198.19;;;22.17;60.05
11339;BME280;5724;42.684;23.252;2022-08-19T05:52:55;94189.69;;;22.08;59.82
11339;BME280;5724;42.684;23.252;2022-08-19T05:55:20;94202.81;;;21.91;60.51
11339;BME280;5724;42.684;23.252;2022-08-19T05:57:47;94194.19;;;22.02;60.46
11339;BME280;5724;42.684;23.252;2022-08-19T06:00:13;94195.22;;;22.24;60.32
11339;BME280;5724;42.684;23.252;2022-08-19T06:02:39;94203.91;;;22.43;59.64
11339;BME280;5724;42.684;23.252;2022-08-19T06:05:07;94211.84;;;22.57;59.39
11339;BME280;5724;42.684;23.252;2022-08-19T06:07:35;94209.47;;;22.72;59.18
11339;BME280;5724;42.684;23.252;2022-08-19T06:10:03;94200.03;;;22.82;59.13
11339;BME280;5724;42.684;23.252;2022-08-19T06:12:30;94197.00;;;22.76;59.59
11339;BME280;5724;42.684;23.252;2022-08-19T06:14:59;94208.56;;;22.91;59.22
11339;BME280;5724;42.684;23.252;2022-08-19T06:17:24;94215.06;;;23.01;59.14
11339;BME280;5724;42.684;23.252;2022-08-19T06:19:51;94205.81;;;23.04;58.19
11339;BME280;5724;42.684;23.252;2022-08-19T06:22:17;94211.66;;;23.35;57.99
11339;BME280;5724;42.684;23.252;2022-08-19T06:24:42;94190.38;;;23.41;57.60
11339;BME280;5724;42.684;23.252;2022-08-19T06:27:08;94211.13;;;23.53;57.44
11339;BME280;5724;42.684;23.252;2022-08-19T06:29:34;94207.78;;;23.58;57.49
11339;BME280;5724;42.684;23.252;2022-08-19T06:32:02;94207.47;;;23.68;56.66
11339;BME280;5724;42.684;23.252;2022-08-19T06:34:30;94193.41;;;23.72;56.51
11339;BME280;5724;42.684;23.252;2022-08-19T06:36:59;94210.38;;;23.78;57.09
11339;BME280;5724;42.684;23.252;2022-08-19T06:39:31;94201.75;;;23.97;56.08
11339;BME280;5724;42.684;23.252;2022-08-19T06:41:59;94209.22;;;24.13;55.82
11339;BME280;5724;42.684;23.252;2022-08-19T06:44:27;94177.16;;;24.18;55.22
11339;BME280;5724;42.684;23.252;2022-08-19T06:46:56;94207.50;;;24.41;54.37
11339;BME280;5724;42.684;23.252;2022-08-19T06:49:22;94203.13;;;24.53;54.48
11339;BME280;5724;42.684;23.252;2022-08-19T06:51:49;94201.03;;;24.44;55.20
11339;BME280;5724;42.684;23.252;2022-08-19T06:54:16;94205.22;;;24.62;54.92
11339;BME280;5724;42.684;23.252;2022-08-19T06:56:42;94206.13;;;24.80;54.19
11339;BME280;5724;42.684;23.252;2022-08-19T06:59:14;94211.78;;;24.90;53.58
11339;BME280;5724;42.684;23.252;2022-08-19T07:01:43;94212.78;;;25.18;52.92
11339;BME280;5724;42.684;23.252;2022-08-19T07:04:11;94215.38;;;25.34;52.92
11339;BME280;5724;42.684;23.252;2022-08-19T07:06:37;94221.22;;;25.49;52.36
11339;BME280;5724;42.684;23.252;2022-08-19T07:09:04;94220.91;;;25.56;51.80
11339;BME280;5724;42.684;23.252;2022-08-19T07:11:30;94215.78;;;25.54;51.78
11339;BME280;5724;42.684;23.252;2022-08-19T07:13:56;94214.22;;;25.53;51.71
11339;BME280;5724;42.684;23.252;2022-08-19T07:16:21;94203.91;;;25.41;51.71
11339;BME280;5724;42.684;23.252;2022-08-19T07:18:50;94215.31;;;25.56;51.69
11339;BME280;5724;42.684;23.252;2022-08-19T07:21:19;94215.63;;;25.49;52.06
11339;BME280;5724;42.684;23.252;2022-08-19T07:23:45;94226.50;;;25.56;51.29
11339;BME280;5724;42.684;23.252;2022-08-19T07:26:20;94219.88;;;25.62;51.97
11339;BME280;5724;42.684;23.252;2022-08-19T07:28:47;94219.53;;;25.82;51.21
11339;BME280;5724;42.684;23.252;2022-08-19T07:31:17;94220.63;;;25.85;51.13
11339;BME280;5724;42.684;23.252;2022-08-19T07:33:48;94204.66;;;26.04;51.01
11339;BME280;5724;42.684;23.252;2022-08-19T07:36:16;94216.66;;;26.13;50.32
11339;BME280;5724;42.684;23.252;2022-08-19T07:38:43;94217.25;;;26.48;49.91
11339;BME280;5724;42.684;23.252;2022-08-19T07:41:12;94217.88;;;26.52;48.74
11339;BME280;5724;42.684;23.252;2022-08-19T07:43:38;94212.75;;;26.69;47.73
11339;BME280;5724;42.684;23.252;2022-08-19T07:46:10;94212.72;;;26.42;48.28
11339;BME280;5724;42.684;23.252;2022-08-19T07:48:37;94221.63;;;26.68;47.79
11339;BME280;5724;42.684;23.252;2022-08-19T07:51:05;94219.31;;;26.94;47.99
11339;BME280;5724;42.684;23.252;2022-08-19T07:53:32;94218.66;;;26.90;47.52
11339;BME280;5724;42.684;23.252;2022-08-19T07:55:59;94213.38;;;26.92;47.56
11339;BME280;5724;42.684;23.252;2022-08-19T07:58:29;94210.91;;;27.03;47.13
11339;BME280;5724;42.684;23.252;2022-08-19T08:00:55;94226.78;;;27.24;46.57
11339;BME280;5724;42.684;23.252;2022-08-19T08:03:22;94217.41;;;27.36;46.34
11339;BME280;5724;42.684;23.252;2022-08-19T08:06:11;94222.19;;;27.54;45.56
11339;BME280;5724;42.684;23.252;2022-08-19T08:08:55;94219.03;;;27.80;45.05
11339;BME280;5724;42.684;23.252;2022-08-19T08:11:56;94220.38;;;27.93;44.28
11339;BME280;5724;42.684;23.252;2022-08-19T08:14:32;94220.63;;;28.05;43.92
11339;BME280;5724;42.684;23.252;2022-08-19T08:17:00;94206.81;;;28.25;43.83
11339;BME280;5724;42.684;23.252;2022-08-19T08:19:27;94210.72;;;28.51;43.75
11339;BME280;5724;42.684;23.252;2022-08-19T08:21:55;94208.50;;;28.56;44.06
11339;BME280;5724;42.684;23.252;2022-08-19T08:24:21;94199.78;;;28.30;42.98
11339;BME280;5724;42.684;23.252;2022-08-19T08:26:46;94203.97;;;28.34;42.95
11339;BME280;5724;42.684;23.252;2022-08-19T08:29:12;94204.69;;;28.68;42.49
11339;BME280;5724;42.684;23.252;2022-08-19T08:31:40;94195.47;;;28.91;41.79
11339;BME280;5724;42.684;23.252;2022-08-19T08:34:06;94201.50;;;29.14;41.70
11339;BME280;5724;42.684;23.252;2022-08-19T08:36:32;94198.63;;;29.23;41.11
11339;BME280;5724;42.684;23.252;2022-08-19T08:39:00;94192.22;;;29.37;39.56
11339;BME280;5724;42.684;23.252;2022-08-19T08:44:16;94196.91;;;28.63;38.36
11339;BME280;5724;42.684;23.252;2022-08-19T08:46:49;94190.47;;;29.10;38.00
11339;BME280;5724;42.684;23.252;2022-08-19T08:49:28;94198.63;;;29.38;37.72
11339;BME280;5724;42.684;23.252;2022-08-19T08:52:24;94195.81;;;29.23;38.30
11339;BME280;5724;42.684;23.252;2022-08-19T08:54:53;94192.53;;;29.69;38.37
11339;BME280;5724;42.684;23.252;2022-08-19T08:57:35;94193.88;;;29.88;38.93
11339;BME280;5724;42.684;23.252;2022-08-19T09:00:03;94192.44;;;29.78;37.17
11339;BME280;5724;42.684;23.252;2022-08-19T09:02:31;94184.88;;;29.84;36.71
11339;BME280;5724;42.684;23.252;2022-08-19T09:04:56;94184.28;;;29.50;37.49
11339;BME280;5724;42.684;23.252;2022-08-19T09:10:18;94186.88;;;30.13;37.08
11339;BME280;5724;42.684;23.252;2022-08-19T09:13:20;94183.47;;;30.44;35.74
11339;BME280;5724;42.684;23.252;2022-08-19T09:16:02;94176.06;;;30.46;37.49
11339;BME280;5724;42.684;23.252;2022-08-19T09:18:49;94166.94;;;30.72;37.46
11339;BME280;5724;42.684;23.252;2022-08-19T09:21:20;94166.03;;;30.45;36.27
11339;BME280;5724;42.684;23.252;2022-08-19T09:23:46;94170.72;;;30.69;34.85
11339;BME280;5724;42.684;23.252;2022-08-19T09:26:15;94171.94;;;30.83;34.55
11339;BME280;5724;42.684;23.252;2022-08-19T09:28:45;94169.50;;;30.55;34.89
11339;BME280;5724;42.684;23.252;2022-08-19T09:31:13;94169.47;;;30.70;35.18
11339;BME280;5724;42.684;23.252;2022-08-19T09:33:39;94157.44;;;30.55;32.98
11339;BME280;5724;42.684;23.252;2022-08-19T09:36:08;94149.59;;;29.88;32.83
11339;BME280;5724;42.684;23.252;2022-08-19T09:38:35;94170.06;;;29.89;33.45
11339;BME280;5724;42.684;23.252;2022-08-19T09:41:05;94163.66;;;30.03;33.43
11339;BME280;5724;42.684;23.252;2022-08-19T09:43:32;94164.44;;;29.89;34.41
11339;BME280;5724;42.684;23.252;2022-08-19T09:46:04;94165.09;;;30.13;33.60
11339;BME280;5724;42.684;23.252;2022-08-19T09:48:37;94161.31;;;30.57;32.16
11339;BME280;5724;42.684;23.252;2022-08-19T09:51:04;94154.59;;;30.69;31.71
11339;BME280;5724;42.684;23.252;2022-08-19T09:53:30;94152.09;;;30.77;31.75
11339;BME280;5724;42.684;23.252;2022-08-19T09:55:56;94156.50;;;31.04;31.67
11339;BME280;5724;42.684;23.252;2022-08-19T09:58:21;94162.13;;;31.24;30.51
11339;BME280;5724;42.684;23.252;2022-08-19T10:00:51;94148.66;;;30.67;31.50
11339;BME280;5724;42.684;23.252;2022-08-19T10:03:18;94141.31;;;30.55;31.89
11339;BME280;5724;42.684;23.252;2022-08-19T10:05:44;94135.88;;;30.31;31.35
11339;BME280;5724;42.684;23.252;2022-08-19T10:08:36;94132.00;;;30.49;30.89
11339;BME280;5724;42.684;23.252;2022-08-19T10:11:03;94139.13;;;30.24;30.20
11339;BME280;5724;42.684;23.252;2022-08-19T10:13:31;94140.78;;;30.16;30.33
11339;BME280;5724;42.684;23.252;2022-08-19T10:16:04;94135.66;;;30.14;30.59
11339;BME280;5724;42.684;23.252;2022-08-19T10:18:30;94128.03;;;30.20;30.36
11339;BME280;5724;42.684;23.252;2022-08-19T10:21:11;94124.94;;;30.39;30.88
11339;BME280;5724;42.684;23.252;2022-08-19T10:23:38;94134.47;;;30.62;31.30
11339;BME280;5724;42.684;23.252;2022-08-19T10:26:05;94127.63;;;30.89;30.80
11339;BME280;5724;42.684;23.252;2022-08-19T10:28:33;94121.06;;;30.77;30.46
11339;BME280;5724;42.684;23.252;2022-08-19T10:31:12;94122.13;;;30.59;29.12
11339;BME280;5724;42.684;23.252;2022-08-19T10:33:38;94107.03;;;30.83;28.58
11339;BME280;5724;42.684;23.252;2022-08-19T10:36:11;94125.25;;;31.08;28.68
11339;BME280;5724;42.684;23.252;2022-08-19T10:38:37;94118.97;;;31.18;28.46
11339;BME280;5724;42.684;23.252;2022-08-19T10:41:22;94118.75;;;31.53;28.68
11339;BME280;5724;42.684;23.252;2022-08-19T10:43:53;94116.34;;;31.72;28.44
11339;BME280;5724;42.684;23.252;2022-08-19T10:46:21;94112.06;;;31.77;28.46
11339;BME280;5724;42.684;23.252;2022-08-19T10:48:47;94120.09;;;31.58;28.85
11339;BME280;5724;42.684;23.252;2022-08-19T10:51:14;94107.97;;;31.78;28.36
11339;BME280;5724;42.684;23.252;2022-08-19T10:53:59;94113.44;;;31.93;28.29
11339;BME280;5724;42.684;23.252;2022-08-19T10:56:26;94116.22;;;32.24;28.20
11339;BME280;5724;42.684;23.252;2022-08-19T10:59:10;94105.25;;;32.37;27.94
11339;BME280;5724;42.684;23.252;2022-08-19T11:01:41;94106.34;;;32.57;28.41
11339;BME280;5724;42.684;23.252;2022-08-19T11:04:07;94109.22;;;32.68;28.55
11339;BME280;5724;42.684;23.252;2022-08-19T11:06:35;94106.69;;;32.81;29.40
11339;BME280;5724;42.684;23.252;2022-08-19T11:09:02;94113.97;;;32.93;28.15
11339;BME280;5724;42.684;23.252;2022-08-19T11:11:28;94102.66;;;32.93;28.61
11339;BME280;5724;42.684;23.252;2022-08-19T11:13:56;94101.91;;;33.04;28.06
11339;BME280;5724;42.684;23.252;2022-08-19T11:16:24;94102.44;;;33.25;28.05
11339;BME280;5724;42.684;23.252;2022-08-19T11:18:53;94101.94;;;33.26;28.40
11339;BME280;5724;42.684;23.252;2022-08-19T11:21:23;94098.38;;;33.59;27.37
11339;BME280;5724;42.684;23.252;2022-08-19T11:23:53;94098.34;;;33.48;27.87
11339;BME280;5724;42.684;23.252;2022-08-19T11:26:20;94084.69;;;33.30;28.09
11339;BME280;5724;42.684;23.252;2022-08-19T11:28:46;94084.16;;;33.26;27.83
11339;BME280;5724;42.684;23.252;2022-08-19T11:31:13;94089.88;;;33.37;28.13
11339;BME280;5724;42.684;23.252;2022-08-19T11:33:40;94079.81;;;33.30;28.72
11339;BME280;5724;42.684;23.252;2022-08-19T11:36:06;94082.41;;;33.51;28.59
11339;BME280;5724;42.684;23.252;2022-08-19T11:38:33;94076.97;;;33.75;28.44
11339;BME280;5724;42.684;23.252;2022-08-19T11:41:01;94079.56;;;33.90;27.31
11339;BME280;5724;42.684;23.252;2022-08-19T11:43:27;94080.34;;;33.74;27.53
11339;BME280;5724;42.684;23.252;2022-08-19T11:45:54;94069.22;;;33.87;27.50
11339;BME280;5724;42.684;23.252;2022-08-19T11:48:20;94073.63;;;33.82;27.64
11339;BME280;5724;42.684;23.252;2022-08-19T11:50:49;94067.69;;;33.02;28.04
11339;BME280;5724;42.684;23.252;2022-08-19T11:53:17;94068.50;;;33.47;27.82
11339;BME280;5724;42.684;23.252;2022-08-19T11:55:43;94074.41;;;33.72;27.90
11339;BME280;5724;42.684;23.252;2022-08-19T11:58:10;94069.00;;;33.57;28.68
11339;BME280;5724;42.684;23.252;2022-08-19T12:00:36;94068.25;;;33.62;27.18
11339;BME280;5724;42.684;23.252;2022-08-19T12:03:02;94059.19;;;33.86;27.17
11339;BME280;5724;42.684;23.252;2022-08-19T12:05:28;94055.88;;;33.71;28.21
11339;BME280;5724;42.684;23.252;2022-08-19T12:07:54;94057.16;;;33.92;27.70
11339;BME280;5724;42.684;23.252;2022-08-19T12:10:20;94052.47;;;34.11;27.02
11339;BME280;5724;42.684;23.252;2022-08-19T12:12:46;94050.88;;;34.27;28.05
11339;BME280;5724;42.684;23.252;2022-08-19T12:15:12;94044.44;;;34.15;27.06
11339;BME280;5724;42.684;23.252;2022-08-19T12:17:40;94044.44;;;34.15;27.51
11339;BME280;5724;42.684;23.252;2022-08-19T12:20:09;94035.66;;;34.25;27.42
11339;BME280;5724;42.684;23.252;2022-08-19T12:22:36;94029.19;;;34.30;26.49
11339;BME280;5724;42.684;23.252;2022-08-19T12:25:02;94026.03;;;34.50;26.97
11339;BME280;5724;42.684;23.252;2022-08-19T12:27:28;94032.72;;;34.58;26.66
11339;BME280;5724;42.684;23.252;2022-08-19T12:29:53;94028.38;;;34.35;27.56
11339;BME280;5724;42.684;23.252;2022-08-19T12:32:19;94024.88;;;34.18;27.83
11339;BME280;5724;42.684;23.252;2022-08-19T12:34:44;94018.16;;;34.21;27.75
11339;BME280;5724;42.684;23.252;2022-08-19T12:37:12;94024.00;;;34.34;27.97
11339;BME280;5724;42.684;23.252;2022-08-19T12:39:40;94016.28;;;34.46;27.57
11339;BME280;5724;42.684;23.252;2022-08-19T12:42:07;94014.06;;;34.10;26.89
11339;BME280;5724;42.684;23.252;2022-08-19T12:44:33;94009.44;;;34.07;26.84
11339;BME280;5724;42.684;23.252;2022-08-19T12:46:59;94012.94;;;34.41;26.77
11339;BME280;5724;42.684;23.252;2022-08-19T12:49:27;94016.53;;;34.42;26.52
11339;BME280;5724;42.684;23.252;2022-08-19T12:51:53;94011.47;;;34.12;26.50
11339;BME280;5724;42.684;23.252;2022-08-19T12:54:18;94012.28;;;33.85;26.92
11339;BME280;5724;42.684;23.252;2022-08-19T12:56:45;94014.34;;;33.84;26.97
11339;BME280;5724;42.684;23.252;2022-08-19T12:59:10;94008.72;;;33.90;27.01
11339;BME280;5724;42.684;23.252;2022-08-19T13:01:36;94001.72;;;34.02;27.06
11339;BME280;5724;42.684;23.252;2022-08-19T13:04:02;94006.25;;;34.28;27.29
11339;BME280;5724;42.684;23.252;2022-08-19T13:06:27;93998.22;;;34.37;26.78
11339;BME280;5724;42.684;23.252;2022-08-19T13:08:54;93988.72;;;34.29;26.62
11339;BME280;5724;42.684;23.252;2022-08-19T13:11:20;93997.19;;;34.46;26.61
11339;BME280;5724;42.684;23.252;2022-08-19T13:13:50;93974.78;;;34.37;27.17
11339;BME280;5724;42.684;23.252;2022-08-19T13:16:17;93985.78;;;34.52;26.98